sensor_id;sensor_type;location;lat;lon;timestamp;P1;durP1;ratioP1;P2;durP2;ratioP2
25667;SDS011;18003;-33.830;151.202;2022-09-24T00:00:40;9.60;;;3.87;;
25667;SDS011;18003;-33.830;151.202;2022-09-24T00:03:11;13.00;;;3.58;;
25667;SDS011;18003;-33.830;151.202;2022-09-24T00:05:41;7.58;;;3.22;;
25667;SDS011;18003;-33.830;151.202;2022-09-24T00:08:11;7.40;;;3.02;;
25667;SDS011;18003;-33.830;151.202;2022-09-24T00:10:45;10.13;;;3.00;;
25667;SDS011;18003;-33.830;151.202;2022-09-24T00:13:16;4.67;;;2.00;;
25667;SDS011;18003;-33.830;151.202;2022-09-24T00:15:46;6.30;;;2.47;;
25667;SDS011;18003;-33.830;151.202;2022-09-24T00:18:18;6.83;;;2.20;;
25667;SDS011;18003;-33.830;151.202;2022-09-24T00:20:48;8.63;;;2.20;;
25667;SDS011;18003;-33.830;151.202;2022-09-24T00:23:23;5.42;;;2.00;;
25667;SDS011;18003;-33.830;151.202;2022-09-24T00:25:49;2.67;;;1.52;;
25667;SDS011;18003;-33.830;151.202;2022-09-24T00:28:37;4.90;;;1.82;;
25667;SDS011;18003;-33.830;151.202;2022-09-24T00:31:07;5.33;;;1.85;;
25667;SDS011;18003;-33.830;151.202;2022-09-24T00:33:37;3.95;;;1.72;;
25667;SDS011;18003;-33.830;151.202;2022-09-24T00:36:07;3.80;;;1.50;;
25667;SDS011;18003;-33.830;151.202;2022-09-24T00:38:38;4.85;;;1.40;;
25667;SDS011;18003;-33.830;151.202;2022-09-24T00:41:08;8.73;;;1.42;;
25667;SDS011;18003;-33.830;151.202;2022-09-24T00:43:38;3.40;;;1.40;;
25667;SDS011;18003;-33.830;151.202;2022-09-24T00:48:46;4.83;;;1.40;;
25667;SDS011;18003;-33.830;151.202;2022-09-24T00:51:22;2.55;;;1.12;;
25667;SDS011;18003;-33.830;151.202;2022-09-24T00:53:54;2.90;;;1.37;;
25667;SDS011;18003;-33.830;151.202;2022-09-24T00:56:26;1.95;;;1.20;;
25667;SDS011;18003;-33.830;151.202;2022-09-24T00:58:58;3.37;;;1.60;;
25667;SDS011;18003;-33.830;151.202;2022-09-24T01:01:30;5.65;;;1.70;;
25667;SDS011;18003;-33.830;151.202;2022-09-24T01:04:00;2.80;;;1.50;;
25667;SDS011;18003;-33.830;151.202;2022-09-24T01:06:32;2.30;;;1.20;;
25667;SDS011;18003;-33.830;151.202;2022-09-24T01:09:02;2.70;;;1.55;;
25667;SDS011;18003;-33.830;151.202;2022-09-24T01:11:40;4.97;;;1.67;;
25667;SDS011;18003;-33.830;151.202;2022-09-24T01:17:36;5.33;;;1.50;;
25667;SDS011;18003;-33.830;151.202;2022-09-24T01:23:21;3.42;;;1.37;;
25667;SDS011;18003;-33.830;151.202;2022-09-24T01:26:15;6.42;;;1.50;;
25667;SDS011;18003;-33.830;151.202;2022-09-24T01:31:35;2.27;;;1.20;;
25667;SDS011;18003;-33.830;151.202;2022-09-24T01:34:13;6.05;;;1.25;;
25667;SDS011;18003;-33.830;151.202;2022-09-24T01:36:44;10.75;;;1.40;;
25667;SDS011;18003;-33.830;151.202;2022-09-24T01:39:17;3.17;;;1.10;;
25667;SDS011;18003;-33.830;151.202;2022-09-24T01:41:49;3.30;;;1.00;;
25667;SDS011;18003;-33.830;151.202;2022-09-24T01:44:21;1.77;;;0.82;;
25667;SDS011;18003;-33.830;151.202;2022-09-24T01:46:52;1.92;;;0.93;;
25667;SDS011;18003;-33.830;151.202;2022-09-24T01:49:23;0.90;;;0.80;;
25667;SDS011;18003;-33.830;151.202;2022-09-24T01:51:54;3.83;;;1.00;;
25667;SDS011;18003;-33.830;151.202;2022-09-24T01:54:43;1.65;;;0.90;;
25667;SDS011;18003;-33.830;151.202;2022-09-24T01:57:31;1.57;;;1.10;;
25667;SDS011;18003;-33.830;151.202;2022-09-24T02:00:03;1.67;;;1.00;;
25667;SDS011;18003;-33.830;151.202;2022-09-24T02:02:43;0.88;;;0.88;;
25667;SDS011;18003;-33.830;151.202;2022-09-24T02:07:57;6.97;;;1.05;;
25667;SDS011;18003;-33.830;151.202;2022-09-24T02:10:26;7.50;;;0.90;;
25667;SDS011;18003;-33.830;151.202;2022-09-24T02:12:59;3.15;;;0.90;;
25667;SDS011;18003;-33.830;151.202;2022-09-24T02:15:36;2.92;;;1.02;;
25667;SDS011;18003;-33.830;151.202;2022-09-24T02:18:04;4.30;;;1.07;;
25667;SDS011;18003;-33.830;151.202;2022-09-24T02:20:35;2.65;;;1.00;;
25667;SDS011;18003;-33.830;151.202;2022-09-24T02:23:06;4.92;;;1.02;;
25667;SDS011;18003;-33.830;151.202;2022-09-24T02:25:43;2.15;;;1.00;;
25667;SDS011;18003;-33.830;151.202;2022-09-24T02:28:09;3.02;;;1.50;;
25667;SDS011;18003;-33.830;151.202;2022-09-24T02:30:40;2.77;;;1.20;;
25667;SDS011;18003;-33.830;151.202;2022-09-24T02:33:11;3.80;;;1.35;;
25667;SDS011;18003;-33.830;151.202;2022-09-24T02:36:00;2.87;;;1.27;;
25667;SDS011;18003;-33.830;151.202;2022-09-24T02:38:30;3.85;;;1.12;;
25667;SDS011;18003;-33.830;151.202;2022-09-24T02:41:00;2.30;;;1.45;;
25667;SDS011;18003;-33.830;151.202;2022-09-24T02:43:31;5.47;;;1.70;;
25667;SDS011;18003;-33.830;151.202;2022-09-24T02:46:02;2.17;;;1.20;;
25667;SDS011;18003;-33.830;151.202;2022-09-24T02:48:32;1.95;;;1.40;;
25667;SDS011;18003;-33.830;151.202;2022-09-24T02:51:02;4.37;;;1.25;;
25667;SDS011;18003;-33.830;151.202;2022-09-24T02:53:33;2.55;;;1.30;;
25667;SDS011;18003;-33.830;151.202;2022-09-24T02:56:03;3.20;;;1.30;;
25667;SDS011;18003;-33.830;151.202;2022-09-24T02:58:33;1.98;;;1.35;;
25667;SDS011;18003;-33.830;151.202;2022-09-24T03:01:06;2.72;;;1.47;;
25667;SDS011;18003;-33.830;151.202;2022-09-24T03:06:04;3.00;;;1.25;;
25667;SDS011;18003;-33.830;151.202;2022-09-24T03:08:34;1.95;;;1.20;;
25667;SDS011;18003;-33.830;151.202;2022-09-24T03:11:05;4.62;;;1.17;;
25667;SDS011;18003;-33.830;151.202;2022-09-24T03:13:52;4.47;;;1.33;;
25667;SDS011;18003;-33.830;151.202;2022-09-24T03:16:07;5.22;;;1.80;;
25667;SDS011;18003;-33.830;151.202;2022-09-24T03:18:37;6.20;;;1.62;;
25667;SDS011;18003;-33.830;151.202;2022-09-24T03:21:08;2.20;;;1.32;;
25667;SDS011;18003;-33.830;151.202;2022-09-24T03:23:54;3.10;;;1.30;;
25667;SDS011;18003;-33.830;151.202;2022-09-24T03:26:13;3.33;;;1.40;;
25667;SDS011;18003;-33.830;151.202;2022-09-24T03:28:43;1.98;;;1.10;;
25667;SDS011;18003;-33.830;151.202;2022-09-24T03:31:13;3.37;;;1.30;;
25667;SDS011;18003;-33.830;151.202;2022-09-24T03:33:44;2.08;;;1.10;;
25667;SDS011;18003;-33.830;151.202;2022-09-24T03:36:15;1.27;;;1.07;;
25667;SDS011;18003;-33.830;151.202;2022-09-24T03:41:16;2.30;;;1.20;;
25667;SDS011;18003;-33.830;151.202;2022-09-24T03:43:46;3.40;;;1.10;;
25667;SDS011;18003;-33.830;151.202;2022-09-24T03:46:16;2.90;;;1.20;;
25667;SDS011;18003;-33.830;151.202;2022-09-24T03:48:46;4.00;;;1.55;;
25667;SDS011;18003;-33.830;151.202;2022-09-24T03:51:16;3.55;;;1.52;;
25667;SDS011;18003;-33.830;151.202;2022-09-24T03:53:47;5.08;;;1.40;;
25667;SDS011;18003;-33.830;151.202;2022-09-24T03:56:18;2.77;;;1.40;;
25667;SDS011;18003;-33.830;151.202;2022-09-24T03:58:48;3.15;;;1.20;;
25667;SDS011;18003;-33.830;151.202;2022-09-24T04:01:18;3.67;;;1.47;;
25667;SDS011;18003;-33.830;151.202;2022-09-24T04:03:49;4.37;;;1.60;;
25667;SDS011;18003;-33.830;151.202;2022-09-24T04:06:20;2.55;;;1.60;;
25667;SDS011;18003;-33.830;151.202;2022-09-24T04:08:51;3.55;;;1.40;;
25667;SDS011;18003;-33.830;151.202;2022-09-24T04:11:23;2.92;;;1.30;;
25667;SDS011;18003;-33.830;151.202;2022-09-24T04:13:53;3.80;;;1.60;;
25667;SDS011;18003;-33.830;151.202;2022-09-24T04:16:24;2.47;;;1.47;;
25667;SDS011;18003;-33.830;151.202;2022-09-24T04:18:54;5.47;;;1.65;;
25667;SDS011;18003;-33.830;151.202;2022-09-24T04:21:24;4.53;;;1.82;;
25667;SDS011;18003;-33.830;151.202;2022-09-24T04:23:55;3.92;;;1.80;;
25667;SDS011;18003;-33.830;151.202;2022-09-24T04:26:26;3.25;;;1.60;;
25667;SDS011;18003;-33.830;151.202;2022-09-24T04:28:56;3.33;;;1.52;;
25667;SDS011;18003;-33.830;151.202;2022-09-24T04:31:25;5.28;;;1.75;;
25667;SDS011;18003;-33.830;151.202;2022-09-24T04:33:57;5.50;;;1.55;;
25667;SDS011;18003;-33.830;151.202;2022-09-24T04:36:27;8.25;;;2.05;;
25667;SDS011;18003;-33.830;151.202;2022-09-24T04:38:57;5.95;;;1.95;;
25667;SDS011;18003;-33.830;151.202;2022-09-24T04:41:28;4.05;;;1.70;;
25667;SDS011;18003;-33.830;151.202;2022-09-24T04:43:59;3.58;;;2.12;;
25667;SDS011;18003;-33.830;151.202;2022-09-24T04:46:30;3.70;;;1.67;;
25667;SDS011;18003;-33.830;151.202;2022-09-24T04:49:00;5.62;;;1.67;;
25667;SDS011;18003;-33.830;151.202;2022-09-24T04:51:30;3.62;;;1.70;;
25667;SDS011;18003;-33.830;151.202;2022-09-24T04:54:01;5.97;;;1.85;;
25667;SDS011;18003;-33.830;151.202;2022-09-24T04:56:31;3.90;;;1.65;;
25667;SDS011;18003;-33.830;151.202;2022-09-24T04:59:02;5.12;;;1.70;;
25667;SDS011;18003;-33.830;151.202;2022-09-24T05:01:32;5.20;;;1.60;;
25667;SDS011;18003;-33.830;151.202;2022-09-24T05:04:08;6.87;;;1.47;;
25667;SDS011;18003;-33.830;151.202;2022-09-24T05:06:34;3.98;;;1.80;;
25667;SDS011;18003;-33.830;151.202;2022-09-24T05:09:04;3.40;;;1.70;;
25667;SDS011;18003;-33.830;151.202;2022-09-24T05:11:34;8.13;;;2.05;;
25667;SDS011;18003;-33.830;151.202;2022-09-24T05:14:05;4.40;;;1.67;;
25667;SDS011;18003;-33.830;151.202;2022-09-24T05:16:37;5.97;;;2.20;;
25667;SDS011;18003;-33.830;151.202;2022-09-24T05:19:07;6.72;;;1.80;;
25667;SDS011;18003;-33.830;151.202;2022-09-24T05:21:37;3.65;;;1.67;;
25667;SDS011;18003;-33.830;151.202;2022-09-24T05:24:07;4.00;;;1.50;;
25667;SDS011;18003;-33.830;151.202;2022-09-24T05:26:37;3.58;;;1.55;;
25667;SDS011;18003;-33.830;151.202;2022-09-24T05:29:25;5.28;;;1.82;;
25667;SDS011;18003;-33.830;151.202;2022-09-24T05:31:55;3.75;;;1.90;;
25667;SDS011;18003;-33.830;151.202;2022-09-24T05:34:26;3.08;;;1.60;;
25667;SDS011;18003;-33.830;151.202;2022-09-24T05:36:56;4.55;;;1.65;;
25667;SDS011;18003;-33.830;151.202;2022-09-24T05:39:27;4.37;;;1.47;;
25667;SDS011;18003;-33.830;151.202;2022-09-24T05:41:57;3.72;;;1.80;;
25667;SDS011;18003;-33.830;151.202;2022-09-24T05:44:28;3.45;;;1.80;;
25667;SDS011;18003;-33.830;151.202;2022-09-24T05:46:59;3.95;;;2.02;;
25667;SDS011;18003;-33.830;151.202;2022-09-24T05:49:29;4.97;;;1.60;;
25667;SDS011;18003;-33.830;151.202;2022-09-24T05:51:59;4.42;;;2.05;;
25667;SDS011;18003;-33.830;151.202;2022-09-24T05:54:29;5.33;;;1.80;;
25667;SDS011;18003;-33.830;151.202;2022-09-24T05:56:59;3.22;;;1.57;;
25667;SDS011;18003;-33.830;151.202;2022-09-24T05:59:31;4.75;;;1.62;;
25667;SDS011;18003;-33.830;151.202;2022-09-24T06:02:01;3.85;;;1.55;;
25667;SDS011;18003;-33.830;151.202;2022-09-24T06:04:31;5.90;;;1.70;;
25667;SDS011;18003;-33.830;151.202;2022-09-24T06:07:02;2.15;;;1.60;;
25667;SDS011;18003;-33.830;151.202;2022-09-24T06:09:34;3.30;;;1.90;;
25667;SDS011;18003;-33.830;151.202;2022-09-24T06:12:06;4.25;;;1.77;;
25667;SDS011;18003;-33.830;151.202;2022-09-24T06:14:36;3.20;;;1.60;;
25667;SDS011;18003;-33.830;151.202;2022-09-24T06:17:08;6.20;;;1.70;;
25667;SDS011;18003;-33.830;151.202;2022-09-24T06:19:37;7.17;;;2.10;;
25667;SDS011;18003;-33.830;151.202;2022-09-24T06:22:08;4.90;;;2.00;;
25667;SDS011;18003;-33.830;151.202;2022-09-24T06:24:39;2.90;;;1.65;;
25667;SDS011;18003;-33.830;151.202;2022-09-24T06:27:10;2.08;;;1.60;;
25667;SDS011;18003;-33.830;151.202;2022-09-24T06:29:40;2.55;;;1.77;;
25667;SDS011;18003;-33.830;151.202;2022-09-24T06:32:10;5.65;;;1.90;;
25667;SDS011;18003;-33.830;151.202;2022-09-24T06:34:40;3.62;;;1.80;;
25667;SDS011;18003;-33.830;151.202;2022-09-24T06:37:10;5.17;;;1.60;;
25667;SDS011;18003;-33.830;151.202;2022-09-24T06:39:40;3.72;;;2.00;;
25667;SDS011;18003;-33.830;151.202;2022-09-24T06:42:10;3.17;;;1.60;;
25667;SDS011;18003;-33.830;151.202;2022-09-24T06:44:41;4.80;;;1.80;;
25667;SDS011;18003;-33.830;151.202;2022-09-24T06:47:11;2.10;;;1.70;;
25667;SDS011;18003;-33.830;151.202;2022-09-24T06:49:41;3.85;;;1.80;;
25667;SDS011;18003;-33.830;151.202;2022-09-24T06:52:11;3.55;;;1.65;;
25667;SDS011;18003;-33.830;151.202;2022-09-24T06:54:41;4.30;;;1.82;;
25667;SDS011;18003;-33.830;151.202;2022-09-24T06:57:11;5.05;;;2.17;;
25667;SDS011;18003;-33.830;151.202;2022-09-24T06:59:41;2.27;;;1.90;;
25667;SDS011;18003;-33.830;151.202;2022-09-24T07:02:11;4.90;;;2.27;;
25667;SDS011;18003;-33.830;151.202;2022-09-24T07:04:41;4.50;;;2.27;;
25667;SDS011;18003;-33.830;151.202;2022-09-24T07:07:11;4.08;;;2.20;;
25667;SDS011;18003;-33.830;151.202;2022-09-24T07:10:01;3.60;;;2.02;;
25667;SDS011;18003;-33.830;151.202;2022-09-24T07:12:33;3.08;;;1.90;;
25667;SDS011;18003;-33.830;151.202;2022-09-24T07:15:04;17.27;;;2.83;;
25667;SDS011;18003;-33.830;151.202;2022-09-24T07:17:35;11.80;;;2.50;;
25667;SDS011;18003;-33.830;151.202;2022-09-24T07:20:05;7.72;;;2.35;;
25667;SDS011;18003;-33.830;151.202;2022-09-24T07:22:39;10.57;;;2.47;;
25667;SDS011;18003;-33.830;151.202;2022-09-24T07:25:09;22.55;;;3.42;;
25667;SDS011;18003;-33.830;151.202;2022-09-24T07:27:39;26.55;;;3.87;;
25667;SDS011;18003;-33.830;151.202;2022-09-24T07:30:10;29.12;;;3.98;;
25667;SDS011;18003;-33.830;151.202;2022-09-24T07:32:40;55.52;;;5.50;;
25667;SDS011;18003;-33.830;151.202;2022-09-24T07:35:10;58.63;;;5.80;;
25667;SDS011;18003;-33.830;151.202;2022-09-24T07:37:40;35.38;;;4.50;;
25667;SDS011;18003;-33.830;151.202;2022-09-24T07:40:10;25.70;;;3.87;;
25667;SDS011;18003;-33.830;151.202;2022-09-24T07:42:47;28.40;;;4.33;;
25667;SDS011;18003;-33.830;151.202;2022-09-24T07:45:19;23.65;;;3.50;;
25667;SDS011;18003;-33.830;151.202;2022-09-24T07:48:00;48.83;;;5.92;;
25667;SDS011;18003;-33.830;151.202;2022-09-24T07:50:24;41.80;;;5.33;;
25667;SDS011;18003;-33.830;151.202;2022-09-24T07:52:55;59.88;;;6.83;;
25667;SDS011;18003;-33.830;151.202;2022-09-24T07:55:26;39.73;;;5.03;;
25667;SDS011;18003;-33.830;151.202;2022-09-24T07:57:56;101.30;;;9.58;;
25667;SDS011;18003;-33.830;151.202;2022-09-24T08:00:26;60.75;;;5.95;;
25667;SDS011;18003;-33.830;151.202;2022-09-24T08:02:57;26.80;;;4.47;;
25667;SDS011;18003;-33.830;151.202;2022-09-24T08:05:28;24.43;;;4.25;;
25667;SDS011;18003;-33.830;151.202;2022-09-24T08:07:58;34.87;;;4.57;;
25667;SDS011;18003;-33.830;151.202;2022-09-24T08:10:29;27.48;;;3.75;;
25667;SDS011;18003;-33.830;151.202;2022-09-24T08:13:04;13.85;;;3.40;;
25667;SDS011;18003;-33.830;151.202;2022-09-24T08:15:31;13.55;;;4.08;;
25667;SDS011;18003;-33.830;151.202;2022-09-24T08:18:01;14.50;;;3.77;;
25667;SDS011;18003;-33.830;151.202;2022-09-24T08:20:31;26.65;;;4.60;;
25667;SDS011;18003;-33.830;151.202;2022-09-24T08:23:03;61.70;;;6.65;;
25667;SDS011;18003;-33.830;151.202;2022-09-24T08:25:35;113.42;;;11.03;;
25667;SDS011;18003;-33.830;151.202;2022-09-24T08:28:06;60.85;;;7.17;;
25667;SDS011;18003;-33.830;151.202;2022-09-24T08:30:40;35.40;;;5.42;;
25667;SDS011;18003;-33.830;151.202;2022-09-24T08:33:10;24.20;;;4.65;;
25667;SDS011;18003;-33.830;151.202;2022-09-24T08:35:41;51.70;;;6.37;;
25667;SDS011;18003;-33.830;151.202;2022-09-24T08:38:14;16.67;;;3.87;;
25667;SDS011;18003;-33.830;151.202;2022-09-24T08:40:43;14.47;;;3.10;;
25667;SDS011;18003;-33.830;151.202;2022-09-24T08:43:24;11.90;;;3.15;;
25667;SDS011;18003;-33.830;151.202;2022-09-24T08:45:55;11.73;;;3.20;;
25667;SDS011;18003;-33.830;151.202;2022-09-24T08:48:44;8.28;;;3.10;;
25667;SDS011;18003;-33.830;151.202;2022-09-24T08:51:17;8.90;;;3.22;;
25667;SDS011;18003;-33.830;151.202;2022-09-24T08:56:30;8.43;;;3.98;;
25667;SDS011;18003;-33.830;151.202;2022-09-24T09:04:25;6.25;;;3.20;;
25667;SDS011;18003;-33.830;151.202;2022-09-24T09:07:22;5.70;;;3.80;;
25667;SDS011;18003;-33.830;151.202;2022-09-24T09:09:59;6.80;;;3.75;;
25667;SDS011;18003;-33.830;151.202;2022-09-24T09:12:39;4.75;;;3.02;;
25667;SDS011;18003;-33.830;151.202;2022-09-24T09:15:19;7.67;;;3.98;;
25667;SDS011;18003;-33.830;151.202;2022-09-24T09:17:59;6.47;;;3.40;;
25667;SDS011;18003;-33.830;151.202;2022-09-24T09:20:39;7.20;;;3.80;;
25667;SDS011;18003;-33.830;151.202;2022-09-24T09:23:12;6.70;;;3.98;;
25667;SDS011;18003;-33.830;151.202;2022-09-24T09:25:37;6.15;;;4.00;;
25667;SDS011;18003;-33.830;151.202;2022-09-24T09:30:47;5.55;;;3.62;;
25667;SDS011;18003;-33.830;151.202;2022-09-24T09:42:32;6.08;;;3.95;;
25667;SDS011;18003;-33.830;151.202;2022-09-24T09:44:30;5.12;;;3.67;;
25667;SDS011;18003;-33.830;151.202;2022-09-24T09:49:37;7.30;;;3.67;;
25667;SDS011;18003;-33.830;151.202;2022-09-24T09:52:11;6.30;;;4.10;;
25667;SDS011;18003;-33.830;151.202;2022-09-24T09:54:43;9.03;;;4.33;;
25667;SDS011;18003;-33.830;151.202;2022-09-24T09:57:21;7.92;;;5.40;;
25667;SDS011;18003;-33.830;151.202;2022-09-24T09:59:52;6.87;;;4.60;;
25667;SDS011;18003;-33.830;151.202;2022-09-24T10:02:32;7.37;;;4.90;;
25667;SDS011;18003;-33.830;151.202;2022-09-24T10:05:03;6.03;;;4.87;;
25667;SDS011;18003;-33.830;151.202;2022-09-24T10:07:42;6.37;;;4.60;;
25667;SDS011;18003;-33.830;151.202;2022-09-24T10:10:24;7.40;;;4.37;;
25667;SDS011;18003;-33.830;151.202;2022-09-24T10:12:52;7.97;;;4.67;;
25667;SDS011;18003;-33.830;151.202;2022-09-24T10:15:23;10.43;;;5.12;;
25667;SDS011;18003;-33.830;151.202;2022-09-24T10:17:53;8.68;;;5.60;;
25667;SDS011;18003;-33.830;151.202;2022-09-24T10:20:31;7.42;;;5.37;;
25667;SDS011;18003;-33.830;151.202;2022-09-24T10:23:02;7.67;;;5.53;;
25667;SDS011;18003;-33.830;151.202;2022-09-24T10:25:34;7.62;;;4.78;;
25667;SDS011;18003;-33.830;151.202;2022-09-24T10:28:08;7.17;;;5.30;;
25667;SDS011;18003;-33.830;151.202;2022-09-24T10:30:57;6.75;;;4.95;;
25667;SDS011;18003;-33.830;151.202;2022-09-24T10:33:37;8.08;;;5.00;;
25667;SDS011;18003;-33.830;151.202;2022-09-24T10:36:27;7.20;;;4.75;;
25667;SDS011;18003;-33.830;151.202;2022-09-24T10:39:00;6.78;;;4.87;;
25667;SDS011;18003;-33.830;151.202;2022-09-24T10:41:33;6.22;;;4.28;;
25667;SDS011;18003;-33.830;151.202;2022-09-24T10:44:04;7.40;;;4.72;;
25667;SDS011;18003;-33.830;151.202;2022-09-24T10:47:01;8.13;;;5.00;;
25667;SDS011;18003;-33.830;151.202;2022-09-24T10:49:19;6.30;;;4.70;;
25667;SDS011;18003;-33.830;151.202;2022-09-24T10:52:06;6.45;;;4.42;;
25667;SDS011;18003;-33.830;151.202;2022-09-24T11:00:07;6.53;;;5.00;;
25667;SDS011;18003;-33.830;151.202;2022-09-24T11:05:56;7.50;;;4.58;;
25667;SDS011;18003;-33.830;151.202;2022-09-24T11:17:09;6.83;;;5.00;;
25667;SDS011;18003;-33.830;151.202;2022-09-24T11:22:36;7.22;;;5.62;;
25667;SDS011;18003;-33.830;151.202;2022-09-24T11:25:23;7.95;;;5.83;;
25667;SDS011;18003;-33.830;151.202;2022-09-24T11:31:15;7.83;;;5.30;;
25667;SDS011;18003;-33.830;151.202;2022-09-24T11:33:49;8.60;;;5.67;;
25667;SDS011;18003;-33.830;151.202;2022-09-24T11:47:27;8.95;;;5.85;;
25667;SDS011;18003;-33.830;151.202;2022-09-24T11:53:37;9.08;;;6.22;;
25667;SDS011;18003;-33.830;151.202;2022-09-24T11:58:19;9.65;;;5.97;;
25667;SDS011;18003;-33.830;151.202;2022-09-24T12:01:01;8.38;;;6.53;;
25667;SDS011;18003;-33.830;151.202;2022-09-24T12:06:20;8.38;;;6.95;;
25667;SDS011;18003;-33.830;151.202;2022-09-24T12:08:55;9.58;;;7.40;;
25667;SDS011;18003;-33.830;151.202;2022-09-24T12:16:54;9.58;;;7.45;;
25667;SDS011;18003;-33.830;151.202;2022-09-24T12:19:40;11.08;;;8.13;;
25667;SDS011;18003;-33.830;151.202;2022-09-24T12:22:06;9.28;;;7.25;;
25667;SDS011;18003;-33.830;151.202;2022-09-24T12:24:40;10.60;;;6.83;;
25667;SDS011;18003;-33.830;151.202;2022-09-24T12:27:16;9.20;;;6.42;;
25667;SDS011;18003;-33.830;151.202;2022-09-24T12:32:39;9.50;;;6.72;;
25667;SDS011;18003;-33.830;151.202;2022-09-24T12:38:00;9.70;;;6.62;;
25667;SDS011;18003;-33.830;151.202;2022-09-24T12:43:27;12.18;;;6.58;;
25667;SDS011;18003;-33.830;151.202;2022-09-24T12:46:00;7.95;;;6.00;;
25667;SDS011;18003;-33.830;151.202;2022-09-24T12:51:00;7.40;;;5.90;;
25667;SDS011;18003;-33.830;151.202;2022-09-24T12:53:39;9.25;;;6.15;;
25667;SDS011;18003;-33.830;151.202;2022-09-24T12:56:04;7.22;;;6.10;;
25667;SDS011;18003;-33.830;151.202;2022-09-24T12:58:39;9.05;;;5.72;;
25667;SDS011;18003;-33.830;151.202;2022-09-24T13:01:29;9.35;;;5.75;;
25667;SDS011;18003;-33.830;151.202;2022-09-24T13:06:45;9.75;;;6.40;;
25667;SDS011;18003;-33.830;151.202;2022-09-24T13:09:35;9.83;;;7.37;;
25667;SDS011;18003;-33.830;151.202;2022-09-24T13:17:32;9.80;;;7.55;;
25667;SDS011;18003;-33.830;151.202;2022-09-24T13:20:05;11.38;;;7.58;;
25667;SDS011;18003;-33.830;151.202;2022-09-24T13:22:39;10.23;;;7.10;;
25667;SDS011;18003;-33.830;151.202;2022-09-24T13:27:53;8.50;;;6.47;;
25667;SDS011;18003;-33.830;151.202;2022-09-24T13:30:21;8.58;;;6.53;;
25667;SDS011;18003;-33.830;151.202;2022-09-24T13:35:34;8.63;;;5.90;;
25667;SDS011;18003;-33.830;151.202;2022-09-24T13:38:15;7.80;;;6.12;;
25667;SDS011;18003;-33.830;151.202;2022-09-24T13:40:55;8.25;;;6.05;;
25667;SDS011;18003;-33.830;151.202;2022-09-24T13:43:51;9.08;;;6.50;;
25667;SDS011;18003;-33.830;151.202;2022-09-24T13:46:21;9.40;;;6.00;;
25667;SDS011;18003;-33.830;151.202;2022-09-24T13:48:55;9.40;;;5.95;;
25667;SDS011;18003;-33.830;151.202;2022-09-24T13:51:29;7.30;;;5.70;;
25667;SDS011;18003;-33.830;151.202;2022-09-24T13:56:39;11.12;;;6.67;;
25667;SDS011;18003;-33.830;151.202;2022-09-24T13:59:10;6.83;;;6.08;;
25667;SDS011;18003;-33.830;151.202;2022-09-24T14:01:43;8.68;;;6.70;;
25667;SDS011;18003;-33.830;151.202;2022-09-24T14:04:14;8.63;;;6.30;;
25667;SDS011;18003;-33.830;151.202;2022-09-24T14:06:50;8.45;;;6.15;;
25667;SDS011;18003;-33.830;151.202;2022-09-24T14:11:57;7.80;;;6.47;;
25667;SDS011;18003;-33.830;151.202;2022-09-24T14:17:12;8.53;;;6.08;;
25667;SDS011;18003;-33.830;151.202;2022-09-24T14:19:39;8.73;;;5.90;;
25667;SDS011;18003;-33.830;151.202;2022-09-24T14:22:14;10.60;;;6.35;;
25667;SDS011;18003;-33.830;151.202;2022-09-24T14:25:00;7.45;;;5.92;;
25667;SDS011;18003;-33.830;151.202;2022-09-24T14:27:39;7.25;;;5.70;;
25667;SDS011;18003;-33.830;151.202;2022-09-24T14:32:56;8.45;;;5.97;;
25667;SDS011;18003;-33.830;151.202;2022-09-24T14:35:43;8.58;;;5.50;;
25667;SDS011;18003;-33.830;151.202;2022-09-24T14:38:55;8.28;;;6.08;;
25667;SDS011;18003;-33.830;151.202;2022-09-24T14:40:50;7.55;;;5.60;;
25667;SDS011;18003;-33.830;151.202;2022-09-24T14:43:21;7.33;;;5.70;;
25667;SDS011;18003;-33.830;151.202;2022-09-24T14:46:01;9.28;;;6.00;;
25667;SDS011;18003;-33.830;151.202;2022-09-24T14:48:33;8.28;;;5.83;;
25667;SDS011;18003;-33.830;151.202;2022-09-24T14:51:03;8.10;;;5.65;;
25667;SDS011;18003;-33.830;151.202;2022-09-24T14:53:33;8.90;;;5.40;;
25667;SDS011;18003;-33.830;151.202;2022-09-24T14:56:18;8.15;;;5.75;;
25667;SDS011;18003;-33.830;151.202;2022-09-24T14:58:48;7.65;;;6.05;;
25667;SDS011;18003;-33.830;151.202;2022-09-24T15:01:19;7.70;;;5.53;;
25667;SDS011;18003;-33.830;151.202;2022-09-24T15:03:51;8.08;;;5.72;;
25667;SDS011;18003;-33.830;151.202;2022-09-24T15:06:22;7.37;;;5.60;;
25667;SDS011;18003;-33.830;151.202;2022-09-24T15:09:03;7.28;;;5.45;;
25667;SDS011;18003;-33.830;151.202;2022-09-24T15:11:30;6.25;;;5.22;;
25667;SDS011;18003;-33.830;151.202;2022-09-24T15:16:49;7.25;;;4.92;;
25667;SDS011;18003;-33.830;151.202;2022-09-24T15:19:20;7.37;;;5.05;;
25667;SDS011;18003;-33.830;151.202;2022-09-24T15:21:52;9.90;;;5.37;;
25667;SDS011;18003;-33.830;151.202;2022-09-24T15:24:23;5.95;;;5.30;;
25667;SDS011;18003;-33.830;151.202;2022-09-24T15:29:31;5.25;;;4.75;;
25667;SDS011;18003;-33.830;151.202;2022-09-24T15:32:04;6.78;;;4.80;;
25667;SDS011;18003;-33.830;151.202;2022-09-24T15:34:34;7.33;;;5.00;;
25667;SDS011;18003;-33.830;151.202;2022-09-24T15:37:04;6.03;;;4.92;;
25667;SDS011;18003;-33.830;151.202;2022-09-24T15:39:35;4.90;;;4.17;;
25667;SDS011;18003;-33.830;151.202;2022-09-24T15:42:06;4.45;;;4.00;;
25667;SDS011;18003;-33.830;151.202;2022-09-24T15:44:36;6.62;;;4.40;;
25667;SDS011;18003;-33.830;151.202;2022-09-24T15:47:06;6.35;;;4.58;;
25667;SDS011;18003;-33.830;151.202;2022-09-24T15:49:36;6.80;;;4.42;;
25667;SDS011;18003;-33.830;151.202;2022-09-24T15:52:11;7.00;;;4.25;;
25667;SDS011;18003;-33.830;151.202;2022-09-24T15:54:38;6.53;;;4.33;;
25667;SDS011;18003;-33.830;151.202;2022-09-24T15:57:14;6.50;;;4.37;;
25667;SDS011;18003;-33.830;151.202;2022-09-24T16:02:29;6.25;;;4.28;;
25667;SDS011;18003;-33.830;151.202;2022-09-24T16:04:56;5.75;;;4.58;;
25667;SDS011;18003;-33.830;151.202;2022-09-24T16:07:26;5.47;;;4.25;;
25667;SDS011;18003;-33.830;151.202;2022-09-24T16:09:56;7.17;;;4.90;;
25667;SDS011;18003;-33.830;151.202;2022-09-24T16:12:26;5.97;;;4.25;;
25667;SDS011;18003;-33.830;151.202;2022-09-24T16:14:56;7.30;;;4.75;;
25667;SDS011;18003;-33.830;151.202;2022-09-24T16:17:26;7.55;;;4.28;;
25667;SDS011;18003;-33.830;151.202;2022-09-24T16:19:56;7.85;;;4.37;;
25667;SDS011;18003;-33.830;151.202;2022-09-24T16:22:26;5.70;;;4.65;;
25667;SDS011;18003;-33.830;151.202;2022-09-24T16:24:56;4.90;;;4.45;;
25667;SDS011;18003;-33.830;151.202;2022-09-24T16:27:26;5.95;;;4.37;;
25667;SDS011;18003;-33.830;151.202;2022-09-24T16:29:56;5.22;;;4.50;;
25667;SDS011;18003;-33.830;151.202;2022-09-24T16:32:27;5.15;;;4.33;;
25667;SDS011;18003;-33.830;151.202;2022-09-24T16:34:58;7.15;;;4.33;;
25667;SDS011;18003;-33.830;151.202;2022-09-24T16:37:28;5.95;;;4.70;;
25667;SDS011;18003;-33.830;151.202;2022-09-24T16:39:58;5.97;;;4.90;;
25667;SDS011;18003;-33.830;151.202;2022-09-24T16:42:28;6.40;;;4.70;;
25667;SDS011;18003;-33.830;151.202;2022-09-24T16:44:59;6.42;;;4.85;;
25667;SDS011;18003;-33.830;151.202;2022-09-24T16:47:29;6.85;;;4.58;;
25667;SDS011;18003;-33.830;151.202;2022-09-24T16:49:59;9.68;;;5.60;;